Time;durP1;ratioP1;P1;durP2;ratioP2;P2;SDS_P1;SDS_P2;PMS_P1;PMS_P2;Temp;Humidity;BMP_temperature;BMP_pressure;BME280_temperature;BME280_humidity;BME280_pressure;Samples;Min_cycle;Max_cycle;Signal;HPM_P1;HPM_P2
2022/04/16 00:00:17;;;;;;;24.50;13.15;;;;;;;11.40;nan;100639.19;5010263;28;20483;-67
2022/04/16 00:02:46;;;;;;;24.90;13.88;;;;;;;11.46;nan;100651.44;5010046;28;20044;-66
2022/04/16 00:05:12;;;;;;;23.23;13.43;;;;;;;11.43;nan;100642.16;5009658;28;20041;-67
2022/04/16 00:07:38;;;;;;;21.60;13.57;;;;;;;11.48;nan;100644.13;5010399;28;20029;-66
2022/04/16 00:10:05;;;;;;;20.08;13.05;;;;;;;11.29;nan;100633.63;5010463;28;20176;-67
2022/04/16 00:12:31;;;;;;;21.45;13.43;;;;;;;11.38;nan;100651.78;5009892;28;20492;-68
2022/04/16 00:14:57;;;;;;;21.65;13.27;;;;;;;11.31;nan;100653.69;5003202;28;20084;-67
2022/04/16 00:17:22;;;;;;;22.10;14.10;;;;;;;11.22;nan;100642.66;5022182;28;20377;-67
2022/04/16 00:19:48;;;;;;;26.13;13.82;;;;;;;11.30;nan;100644.97;5004963;28;20037;-69
2022/04/16 00:22:13;;;;;;;23.20;14.27;;;;;;;11.36;nan;100645.91;5010213;28;20120;-68
2022/04/16 00:24:40;;;;;;;24.60;14.55;;;;;;;11.34;nan;100634.78;5013144;28;20026;-67
2022/04/16 00:27:10;;;;;;;23.13;13.93;;;;;;;11.29;nan;100622.28;5026910;28;20034;-66
2022/04/16 00:29:36;;;;;;;;;;;;;;;11.32;nan;100639.47;5026226;28;20033;-67
2022/04/16 00:32:02;;;;;;;21.90;13.05;;;;;;;11.19;nan;100625.44;5013765;28;20418;-66
2022/04/16 00:34:28;;;;;;;24.77;14.27;;;;;;;11.28;nan;100647.03;5014000;28;20179;-65
2022/04/16 00:36:53;;;;;;;26.73;15.25;;;;;;;11.22;nan;100629.47;5023482;28;20046;-66
2022/04/16 00:39:19;;;;;;;26.60;14.77;;;;;;;10.52;nan;100521.94;5023310;28;20065;-66
2022/04/16 00:41:45;;;;;;;23.38;15.30;;;;;;;11.20;nan;100631.50;5029216;28;20487;-66
2022/04/16 00:44:11;;;;;;;30.35;15.20;;;;;;;11.21;nan;100630.50;5022445;28;20041;-66
2022/04/16 00:46:36;;;;;;;29.80;15.52;;;;;;;10.97;nan;100595.34;5022953;28;20391;-67
2022/04/16 00:49:02;;;;;;;26.83;15.68;;;;;;;10.99;nan;100601.16;5022942;28;20030;-66
2022/04/16 00:51:29;;;;;;;26.58;16.25;;;;;;;11.03;nan;100615.50;5015330;28;20045;-67
2022/04/16 00:53:55;;;;;;;29.00;16.00;;;;;;;10.99;nan;100609.06;5013584;28;20124;-67
2022/04/16 00:56:22;;;;;;;26.90;16.13;;;;;;;10.99;nan;100602.00;5028414;28;20038;-68
2022/04/16 00:58:47;;;;;;;31.08;15.88;;;;;;;11.05;nan;100621.38;5011593;28;20087;-66
2022/04/16 01:01:12;;;;;;;28.92;16.95;;;;;;;10.97;nan;100604.03;5013438;28;20128;-67
2022/04/16 01:03:45;;;;;;;28.00;16.70;;;;;;;10.81;nan;100587.00;5012515;28;20109;-67
2022/04/16 01:06:14;;;;;;;33.17;17.50;;;;;;;10.96;nan;100617.44;5012665;28;20122;-67
2022/04/16 01:08:42;;;;;;;27.20;16.92;;;;;;;10.92;nan;100610.97;5013183;28;20426;-66
2022/04/16 01:11:07;;;;;;;31.45;18.17;;;;;;;10.89;nan;100628.03;5008262;28;20085;-66
2022/04/16 01:13:33;;;;;;;26.38;17.38;;;;;;;10.62;nan;100580.94;5013111;28;20173;-64
2022/04/16 01:15:58;;;;;;;29.23;17.73;;;;;;;10.74;nan;100620.53;5012922;28;20131;-66
2022/04/16 01:18:23;;;;;;;32.60;17.33;;;;;;;10.67;nan;100605.81;5012925;28;20042;-66
2022/04/16 01:20:49;;;;;;;29.20;17.50;;;;;;;10.70;nan;100631.72;5024440;28;20047;-66
2022/04/16 01:23:15;;;;;;;32.00;18.05;;;;;;;10.68;nan;100615.31;5006154;28;20372;-66
2022/04/16 01:25:42;;;;;;;27.63;17.20;;;;;;;10.71;nan;100625.44;5012320;28;20129;-66
2022/04/16 01:28:09;;;;;;;31.95;17.50;;;;;;;10.72;nan;100625.19;5012523;28;20037;-66
2022/04/16 01:30:35;;;;;;;32.58;17.70;;;;;;;10.75;nan;100626.59;5012577;28;20045;-68
2022/04/16 01:33:03;;;;;;;31.17;18.00;;;;;;;10.69;nan;100611.69;5012179;28;20073;-65
2022/04/16 01:35:29;;;;;;;31.35;17.45;;;;;;;10.70;nan;100615.91;5012678;28;20034;-67
2022/04/16 01:37:54;;;;;;;28.00;16.75;;;;;;;10.64;nan;100607.06;5012240;28;20084;-66
2022/04/16 01:40:20;;;;;;;31.13;17.35;;;;;;;10.39;nan;100594.78;5009516;28;20084;-67
2022/04/16 01:42:46;;;;;;;27.70;16.90;;;;;;;10.44;nan;100594.13;5002522;28;20852;-67
2022/04/16 01:45:16;;;;;;;27.52;17.50;;;;;;;10.41;nan;100600.63;5012312;28;20471;-65
2022/04/16 01:47:41;;;;;;;34.58;19.08;;;;;;;10.42;nan;100596.97;5012447;28;20045;-67
2022/04/16 01:50:09;;;;;;;30.60;18.20;;;;;;;10.51;nan;100613.28;5012308;28;20029;-65
2022/04/16 01:52:39;;;;;;;33.88;18.88;;;;;;;10.46;nan;100614.94;5012291;28;20113;-66
2022/04/16 01:55:05;;;;;;;37.45;20.23;;;;;;;10.39;nan;100615.00;5012227;28;20042;-67
2022/04/16 01:57:30;;;;;;;38.95;20.13;;;;;;;10.33;nan;100606.19;5011863;28;20129;-66
2022/04/16 01:59:56;;;;;;;39.70;20.60;;;;;;;10.13;nan;100585.28;5012181;28;20125;-67
2022/04/16 02:02:21;;;;;;;41.95;21.17;;;;;;;10.18;nan;100597.81;5012343;28;20034;-66
2022/04/16 02:04:47;;;;;;;36.67;20.50;;;;;;;10.25;nan;100608.25;5011747;28;20479;-66
2022/04/16 02:07:13;;;;;;;37.90;20.85;;;;;;;10.23;nan;100614.53;5011968;28;20038;-66
2022/04/16 02:09:39;;;;;;;39.85;21.17;;;;;;;10.18;nan;100618.84;5011802;28;20038;-66
2022/04/16 02:12:05;;;;;;;37.22;20.25;;;;;;;10.11;nan;100612.84;5012021;28;20034;-66
2022/04/16 02:14:30;;;;;;;37.25;20.88;;;;;;;10.05;nan;100605.81;5010252;28;20026;-66
2022/04/16 02:16:57;;;;;;;42.25;21.00;;;;;;;10.10;nan;100613.84;5011775;28;20042;-66
2022/04/16 02:19:23;;;;;;;37.45;20.00;;;;;;;9.84;nan;100607.81;5007249;28;20084;-65
2022/04/16 02:21:49;;;;;;;36.40;20.50;;;;;;;9.82;nan;100615.09;5006465;28;20478;-66
2022/04/16 02:24:17;;;;;;;37.42;20.95;;;;;;;9.83;nan;100614.06;5011880;28;20044;-66
2022/04/16 02:26:43;;;;;;;40.08;20.48;;;;;;;9.83;nan;100618.53;5011539;28;20044;-66
2022/04/16 02:29:10;;;;;;;38.20;21.20;;;;;;;9.81;nan;100605.59;5011493;28;20104;-66
2022/04/16 02:31:37;;;;;;;33.88;20.30;;;;;;;9.85;nan;100598.88;5012031;28;20037;-67
2022/04/16 02:34:07;;;;;;;36.97;20.85;;;;;;;9.82;nan;100588.81;5011589;28;20117;-67
2022/04/16 02:36:33;;;;;;;39.00;21.23;;;;;;;9.93;nan;100595.19;5009924;28;20572;-66
2022/04/16 02:38:59;;;;;;;39.20;20.67;;;;;;;9.92;nan;100583.84;5011841;28;20121;-66
2022/04/16 02:41:25;;;;;;;37.38;21.02;;;;;;;9.95;nan;100585.25;5011371;28;20395;-67
2022/04/16 02:43:52;;;;;;;36.72;21.58;;;;;;;9.95;nan;100585.25;5011037;28;20037;-68
2022/04/16 02:49:01;;;;;;;38.00;21.77;;;;;;;9.89;nan;100594.81;5010496;28;20504;-69
2022/04/16 02:51:27;;;;;;;38.22;21.25;;;;;;;9.90;nan;100606.94;5011352;28;20030;-66
2022/04/16 02:53:52;;;;;;;40.75;22.13;;;;;;;9.87;nan;100590.78;5026597;28;20038;-68
2022/04/16 02:56:18;;;;;;;37.65;21.00;;;;;;;9.89;nan;100594.00;5011367;28;20045;-68
2022/04/16 02:58:44;;;;;;;36.05;20.48;;;;;;;9.75;nan;100572.28;5011428;28;20038;-67
2022/04/16 03:01:09;;;;;;;37.97;21.23;;;;;;;9.88;nan;100584.50;5026660;28;20041;-68
2022/04/16 03:03:35;;;;;;;39.42;22.17;;;;;;;9.88;nan;100584.50;5011248;28;20030;-69
2022/04/16 03:06:00;;;;;;;41.00;21.67;;;;;;;9.78;nan;100591.03;5010811;28;20111;-68
2022/04/16 03:08:26;;;;;;;42.20;22.70;;;;;;;9.72;nan;100583.19;5010795;28;20041;-68
2022/04/16 03:10:52;;;;;;;38.95;22.23;;;;;;;9.56;nan;100545.91;5010753;28;20037;-68
2022/04/16 03:13:18;;;;;;;43.00;22.70;;;;;;;9.70;nan;100570.28;5011173;28;20029;-68
2022/04/16 03:18:30;;;;;;;42.65;22.63;;;;;;;9.75;nan;100580.16;4999507;28;20033;-68
2022/04/16 03:20:57;;;;;;;42.13;22.77;;;;;;;9.76;nan;100597.53;5009986;28;20044;-67
2022/04/16 03:23:23;;;;;;;42.95;22.38;;;;;;;9.75;nan;100598.56;5011002;28;20030;-69
2022/04/16 03:25:49;;;;;;;43.10;22.88;;;;;;;9.69;nan;100588.91;5025215;28;20053;-69
2022/04/16 03:28:15;;;;;;;36.50;22.25;;;;;;;9.70;nan;100590.53;5010982;28;20041;-66
2022/04/16 03:30:41;;;;;;;47.63;22.75;;;;;;;9.58;nan;100574.63;5010435;28;20037;-68
2022/04/16 03:33:07;;;;;;;42.20;23.85;;;;;;;9.68;nan;100593.34;5010333;28;20034;-68
2022/04/16 03:35:32;;;;;;;42.00;22.90;;;;;;;9.66;nan;100589.34;5010929;28;20036;-67
2022/04/16 03:37:58;;;;;;;41.42;23.13;;;;;;;9.61;nan;100583.91;5010654;28;20377;-67
2022/04/16 03:40:26;;;;;;;44.35;22.60;;;;;;;9.54;nan;100594.47;5010278;28;20054;-67
2022/04/16 03:42:58;;;;;;;43.50;24.45;;;;;;;9.57;nan;100601.94;5010827;28;20033;-68
2022/04/16 03:45:34;;;;;;;47.83;24.75;;;;;;;9.59;nan;100623.56;5025376;28;20519;-69
2022/04/16 03:48:03;;;;;;;50.42;24.90;;;;;;;9.44;nan;100621.22;5025762;28;20125;-67
2022/04/16 03:50:30;;;;;;;47.15;23.83;;;;;;;9.44;nan;100634.38;5010354;28;20034;-68
2022/04/16 03:52:56;;;;;;;43.10;23.27;;;;;;;9.30;nan;100627.56;5010614;28;20059;-67
2022/04/16 04:01:07;;;;;;;49.05;28.58;;;;;;;9.06;nan;100640.41;5009846;28;20062;-67
2022/04/16 04:03:33;;;;;;;53.30;29.27;;;;;;;9.00;nan;100640.44;5018106;28;20030;-66
2022/04/16 04:06:01;;;;;;;52.83;29.17;;;;;;;8.88;nan;100638.47;5020535;28;20121;-67
2022/04/16 04:08:26;;;;;;;50.50;27.92;;;;;;;8.81;nan;100634.25;5019965;28;20042;-67
2022/04/16 04:10:52;;;;;;;48.72;26.70;;;;;;;8.96;nan;100668.16;5036454;28;20038;-67
2022/04/16 04:13:18;;;;;;;42.83;25.40;;;;;;;8.87;nan;100657.88;5020713;28;20062;-68
2022/04/16 04:15:44;;;;;;;51.53;26.63;;;;;;;8.75;nan;100640.34;5017126;28;20030;-66
2022/04/16 04:18:10;;;;;;;46.00;26.10;;;;;;;8.92;nan;100663.28;5015476;28;20030;-68
2022/04/16 04:20:36;;;;;;;49.58;25.55;;;;;;;8.90;nan;100646.13;5028208;28;20401;-68
2022/04/16 04:23:05;;;;;;;48.15;27.05;;;;;;;8.91;nan;100664.31;5013600;28;20034;-68
2022/04/16 04:25:31;;;;;;;46.72;26.02;;;;;;;8.91;nan;100660.91;5013718;28;20029;-67
2022/04/16 04:27:56;;;;;;;54.05;26.17;;;;;;;8.91;nan;100666.94;5012635;28;20034;-68
2022/04/16 04:30:22;;;;;;;43.88;24.60;;;;;;;8.89;nan;100653.22;5013209;28;20034;-68
2022/04/16 04:32:48;;;;;;;47.65;25.15;;;;;;;8.80;nan;100651.03;5021879;28;20026;-69
2022/04/16 04:35:15;;;;;;;49.92;25.67;;;;;;;8.85;nan;100665.13;5012884;28;20474;-67
2022/04/16 04:37:40;;;;;;;48.55;26.73;;;;;;;8.86;nan;100679.06;4998885;28;20053;-69
2022/04/16 04:40:06;;;;;;;47.70;26.15;;;;;;;8.79;nan;100670.41;5011401;28;20030;-67
2022/04/16 04:42:33;;;;;;;42.90;24.45;;;;;;;8.81;nan;100687.59;5017622;28;20040;-67
2022/04/16 04:45:06;;;;;;;45.97;25.58;;;;;;;8.80;nan;100680.72;5014308;28;20029;-68
2022/04/16 04:47:32;;;;;;;46.83;25.65;;;;;;;8.85;nan;100687.97;5015109;28;20038;-67
2022/04/16 04:49:57;;;;;;;51.42;27.02;;;;;;;8.84;nan;100686.38;4990462;28;20042;-66
2022/04/16 04:52:26;;;;;;;62.78;29.95;;;;;;;8.77;nan;100686.38;5017690;28;20036;-67
2022/04/16 04:54:53;;;;;;;59.45;29.75;;;;;;;8.68;nan;100679.72;5046186;28;20053;-67
2022/04/16 04:57:18;;;;;;;47.80;26.63;;;;;;;8.70;nan;100691.63;5018529;28;20053;-67
2022/04/16 04:59:43;;;;;;;56.75;27.42;;;;;;;8.72;nan;100688.81;5013649;28;20801;-68
2022/04/16 05:02:09;;;;;;;45.65;25.33;;;;;;;8.69;nan;100684.78;5013943;28;20037;-67
2022/04/16 05:04:35;;;;;;;44.97;24.48;;;;;;;8.73;nan;100679.91;5012983;28;20420;-70
2022/04/16 05:07:02;;;;;;;45.78;25.75;;;;;;;8.76;nan;100684.75;5026993;28;20491;-71
2022/04/16 05:09:28;;;;;;;51.70;25.67;;;;;;;8.79;nan;100683.53;5012862;28;20042;-71
2022/04/16 05:11:53;;;;;;;49.10;24.25;;;;;;;8.91;nan;100687.16;5014663;28;20026;-71
2022/04/16 05:14:19;;;;;;;45.50;23.98;;;;;;;8.88;nan;100692.81;5027702;28;20122;-71
2022/04/16 05:16:44;;;;;;;43.10;23.25;;;;;;;9.01;nan;100694.59;5013548;28;20565;-71
2022/04/16 05:19:09;;;;;;;36.55;22.42;;;;;;;9.03;nan;100697.84;5014459;28;20065;-70
2022/04/16 05:21:35;;;;;;;42.22;23.38;;;;;;;9.13;nan;100706.06;5017610;28;20100;-71
2022/04/16 05:24:01;;;;;;;40.25;23.05;;;;;;;9.13;nan;100698.19;5029897;28;20070;-71
2022/04/16 05:26:27;;;;;;;42.75;23.05;;;;;;;9.15;nan;100696.16;5012716;28;20026;-71
2022/04/16 05:28:52;;;;;;;33.70;20.85;;;;;;;9.26;nan;100716.53;5013399;28;20044;-71
2022/04/16 05:31:20;;;;;;;35.65;21.75;;;;;;;9.26;nan;100713.09;5013020;28;20550;-73
2022/04/16 05:36:29;;;;;;;41.10;20.30;;;;;;;9.34;nan;100721.56;5012611;28;20054;-72
2022/04/16 05:38:54;;;;;;;34.72;19.15;;;;;;;9.37;nan;100718.50;5024921;28;20041;-73
2022/04/16 05:41:20;;;;;;;31.58;19.65;;;;;;;9.36;nan;100719.53;5021538;28;21865;-71
2022/04/16 05:43:45;;;;;;;32.03;19.00;;;;;;;9.33;nan;100711.25;5012836;28;20033;-71
2022/04/16 05:46:11;;;;;;;35.70;20.60;;;;;;;9.43;nan;100713.44;5012851;28;20041;-73
2022/04/16 05:48:36;;;;;;;44.08;22.08;;;;;;;9.38;nan;100703.53;5011160;28;20040;-71
2022/04/16 05:51:03;;;;;;;45.72;22.92;;;;;;;9.44;nan;100715.06;5034847;28;20040;-71
2022/04/16 05:53:30;;;;;;;38.15;22.02;;;;;;;9.41;nan;100704.94;5012630;28;20034;-72
2022/04/16 05:55:55;;;;;;;38.78;21.95;;;;;;;9.51;nan;100727.16;5012403;28;20042;-72
2022/04/16 05:58:21;;;;;;;42.25;22.25;;;;;;;9.50;nan;100715.00;4999092;28;20121;-72
2022/04/16 06:00:46;;;;;;;38.45;21.52;;;;;;;9.55;nan;100722.25;5011407;28;20044;-74
2022/04/16 06:03:12;;;;;;;38.53;21.33;;;;;;;9.54;nan;100723.28;5011595;28;20483;-70
2022/04/16 06:05:37;;;;;;;35.50;20.60;;;;;;;9.62;nan;100732.75;5011583;28;20403;-70
2022/04/16 06:08:03;;;;;;;37.03;20.73;;;;;;;9.61;nan;100724.06;5009729;28;20457;-70
2022/04/16 06:10:29;;;;;;;36.38;19.67;;;;;;;9.61;nan;100718.00;5010665;28;20037;-70
2022/04/16 06:12:54;;;;;;;30.90;18.95;;;;;;;9.76;nan;100723.78;5013236;28;20106;-70
2022/04/16 06:15:20;;;;;;;39.55;21.23;;;;;;;9.84;nan;100714.81;5013735;28;20077;-71
2022/04/16 06:17:45;;;;;;;32.55;18.40;;;;;;;9.94;nan;100721.25;4998607;28;20117;-72
2022/04/16 06:20:12;;;;;;;31.95;16.20;;;;;;;9.95;nan;100712.31;5010617;28;20037;-71
2022/04/16 06:22:38;;;;;;;24.40;15.50;;;;;;;10.04;nan;100720.78;5014952;28;20144;-71
2022/04/16 06:25:05;;;;;;;27.50;15.65;;;;;;;10.01;nan;100703.59;5014659;28;20045;-72
2022/04/16 06:27:30;;;;;;;28.08;16.35;;;;;;;10.13;nan;100718.69;5020682;28;20030;-71
2022/04/16 06:29:55;;;;;;;28.60;16.77;;;;;;;10.15;nan;100709.56;5014626;28;20038;-70
2022/04/16 06:32:21;;;;;;;27.15;16.30;;;;;;;10.13;nan;100703.72;5008781;28;20080;-67
2022/04/16 06:34:46;;;;;;;25.48;15.38;;;;;;;10.16;nan;100694.56;4996770;28;20073;-68
2022/04/16 06:37:12;;;;;;;28.30;15.70;;;;;;;10.14;nan;100679.00;5009347;28;20087;-68
2022/04/16 06:39:37;;;;;;;24.20;14.50;;;;;;;10.33;nan;100714.09;5019205;28;20088;-69
2022/04/16 06:42:03;;;;;;;30.35;18.67;;;;;;;10.34;nan;100721.00;5003907;28;20111;-69
2022/04/16 06:44:29;;;;;;;26.52;16.50;;;;;;;10.41;nan;100719.09;5011184;28;20028;-72
2022/04/16 06:46:54;;;;;;;24.30;15.88;;;;;;;10.46;nan;100715.81;5011508;28;20125;-74
2022/04/16 06:49:24;;;;;;;24.58;14.63;;;;;;;10.49;nan;100709.31;5011707;28;20065;-74
2022/04/16 06:51:50;;;;;;;22.15;14.25;;;;;;;10.54;nan;100720.00;5022681;28;20113;-72
2022/04/16 06:54:15;;;;;;;21.52;14.93;;;;;;;10.60;nan;100727.81;5001913;28;20124;-73
2022/04/16 06:56:41;;;;;;;24.98;14.45;;;;;;;10.40;nan;100680.63;5010901;28;20069;-73
2022/04/16 06:59:07;;;;;;;23.98;14.13;;;;;;;10.71;nan;100715.00;5011463;28;20365;-72
2022/04/16 07:01:33;;;;;;;20.75;13.50;;;;;;;10.74;nan;100720.59;5011440;28;20038;-73
2022/04/16 07:03:58;;;;;;;21.10;12.88;;;;;;;10.79;nan;100719.97;5026226;28;20037;-74
2022/04/16 07:06:24;;;;;;;21.40;13.10;;;;;;;10.83;nan;100714.03;5011700;28;20124;-70
2022/04/16 07:08:49;;;;;;;20.55;12.95;;;;;;;10.78;nan;100700.72;5026321;28;20488;-71
2022/04/16 07:11:14;;;;;;;20.85;13.50;;;;;;;10.90;nan;100718.44;5009786;28;20034;-71
2022/04/16 07:13:40;;;;;;;21.80;13.45;;;;;;;10.90;nan;100719.25;5011033;28;20483;-71
2022/04/16 07:16:05;;;;;;;24.98;13.70;;;;;;;10.83;nan;100713.25;5011337;28;20080;-70
2022/04/16 07:18:31;;;;;;;22.90;13.60;;;;;;;10.70;nan;100685.19;5011311;28;20060;-70
2022/04/16 07:20:56;;;;;;;25.65;14.55;;;;;;;10.97;nan;100721.81;5014155;28;20124;-70
2022/04/16 07:23:21;;;;;;;24.75;14.65;;;;;;;10.97;nan;100712.06;5019511;28;20063;-71
2022/04/16 07:25:47;;;;;;;28.80;15.07;;;;;;;11.07;nan;100719.47;5033730;28;20033;-71
2022/04/16 07:28:14;;;;;;;25.92;14.98;;;;;;;11.07;nan;100725.53;5017038;28;20033;-70
2022/04/16 07:30:39;;;;;;;26.30;14.30;;;;;;;11.06;nan;100725.75;5015454;28;20117;-68
2022/04/16 07:33:05;;;;;;;25.58;14.93;;;;;;;11.02;nan;100725.41;5018687;28;20137;-71
2022/04/16 07:35:30;;;;;;;20.90;14.25;;;;;;;11.09;nan;100730.59;4996447;28;20116;-72
2022/04/16 07:37:58;;;;;;;24.58;14.52;;;;;;;11.14;nan;100743.91;5010578;28;20228;-72
2022/04/16 07:40:28;;;;;;;27.83;15.45;;;;;;;11.08;nan;100731.59;5010992;28;20447;-72
2022/04/16 07:42:54;;;;;;;23.33;14.75;;;;;;;11.11;nan;100746.16;5010743;28;20776;-74
2022/04/16 07:45:21;;;;;;;25.88;15.00;;;;;;;11.10;nan;100742.75;5015213;28;20035;-73
2022/04/16 07:47:47;;;;;;;23.30;14.48;;;;;;;11.15;nan;100742.09;5010769;28;20132;-74
2022/04/16 07:50:12;;;;;;;21.75;14.43;;;;;;;11.09;nan;100749.03;5010424;28;20487;-74
2022/04/16 07:52:38;;;;;;;23.50;15.80;;;;;;;11.10;nan;100742.75;5003672;28;20105;-74
2022/04/16 07:55:03;;;;;;;25.52;14.73;;;;;;;11.06;nan;100745.03;5010976;28;20085;-71
2022/04/16 07:57:29;;;;;;;23.63;16.00;;;;;;;11.10;nan;100755.13;5010288;28;20084;-71
2022/04/16 07:59:54;;;;;;;27.70;15.43;;;;;;;11.10;nan;100748.00;5010642;28;20085;-71
2022/04/16 08:02:20;;;;;;;24.42;15.88;;;;;;;10.99;nan;100743.47;5025615;28;20117;-71
2022/04/16 08:04:46;;;;;;;32.47;15.80;;;;;;;11.03;nan;100752.53;5010067;28;20369;-70
2022/04/16 08:07:11;;;;;;;23.60;15.27;;;;;;;11.08;nan;100763.22;5010567;28;20472;-71
2022/04/16 08:09:37;;;;;;;25.55;14.73;;;;;;;11.03;nan;100760.44;5010433;28;20076;-70
2022/04/16 08:12:03;;;;;;;35.85;24.52;;;;;;;11.19;nan;100770.41;5010831;28;20077;-71
2022/04/16 08:14:28;;;;;;;26.98;15.52;;;;;;;11.16;nan;100748.97;5008390;28;20042;-70
2022/04/16 08:16:53;;;;;;;27.25;17.55;;;;;;;11.25;nan;100764.28;5010566;28;20041;-72
2022/04/16 08:19:19;;;;;;;25.52;16.63;;;;;;;11.20;nan;100750.94;5010679;28;20443;-71
2022/04/16 08:21:45;;;;;;;27.55;16.85;;;;;;;11.32;nan;100758.09;5025121;28;20209;-70
2022/04/16 08:26:36;;;;;;;23.70;14.88;;;;;;;11.27;nan;100749.03;5002215;28;20723;-71
2022/04/16 08:29:02;;;;;;;26.38;14.75;;;;;;;11.34;nan;100740.25;5008101;28;20046;-70
2022/04/16 08:31:28;;;;;;;30.80;19.50;;;;;;;11.48;nan;100747.75;5011215;28;20435;-70
2022/04/16 08:33:53;;;;;;;55.33;39.08;;;;;;;11.66;nan;100744.31;5011987;28;20033;-68
2022/04/16 08:36:18;;;;;;;22.85;15.95;;;;;;;11.90;nan;100761.06;5011636;28;20050;-71
2022/04/16 08:38:44;;;;;;;21.63;14.40;;;;;;;12.00;nan;100747.31;5024093;28;20045;-70
2022/04/16 08:41:10;;;;;;;25.48;13.90;;;;;;;12.13;nan;100760.31;5013487;28;20064;-70
2022/04/16 08:43:37;;;;;;;23.38;15.40;;;;;;;12.24;nan;100755.28;5010461;28;20037;-70
2022/04/16 08:46:04;;;;;;;20.75;13.88;;;;;;;12.32;nan;100744.38;5017716;28;20061;-69
2022/04/16 08:48:31;;;;;;;24.02;15.35;;;;;;;12.46;nan;100752.91;5016011;28;20133;-69
2022/04/16 08:50:58;;;;;;;25.05;15.60;;;;;;;12.30;nan;100715.56;5020212;28;20066;-70
2022/04/16 08:53:24;;;;;;;23.95;14.77;;;;;;;12.54;nan;100742.00;5010190;28;20045;-69
2022/04/16 08:55:49;;;;;;;25.38;14.52;;;;;;;12.67;nan;100754.97;5009966;28;20411;-69
2022/04/16 08:58:14;;;;;;;23.13;14.40;;;;;;;12.53;nan;100743.84;5015690;28;20038;-71
2022/04/16 09:00:40;;;;;;;22.30;14.35;;;;;;;12.67;nan;100749.69;5013853;28;20042;-70
2022/04/16 09:03:06;;;;;;;22.52;15.02;;;;;;;12.79;nan;100740.97;5011741;28;20129;-69
2022/04/16 09:05:32;;;;;;;22.75;13.82;;;;;;;12.94;nan;100749.22;5002077;28;20034;-71
2022/04/16 09:08:00;;;;;;;25.73;14.80;;;;;;;12.86;nan;100731.88;5013199;28;20027;-70
2022/04/16 09:10:27;;;;;;;23.23;13.95;;;;;;;13.07;nan;100748.16;5012971;28;20045;-68
2022/04/16 09:12:55;;;;;;;24.20;15.02;;;;;;;13.06;nan;100744.72;5011604;28;20107;-71
2022/04/16 09:15:22;;;;;;;21.63;14.60;;;;;;;13.11;nan;100749.31;5016657;28;20041;-69
2022/04/16 09:18:02;;;;;;;20.15;13.63;;;;;;;13.19;nan;100741.00;5011106;28;20048;-70
2022/04/16 09:20:38;;;;;;;21.33;13.43;;;;;;;13.21;nan;100738.94;5011089;28;20065;-71
2022/04/16 09:23:21;;;;;;;20.90;14.65;;;;;;;13.30;nan;100740.22;5013263;28;20049;-69
2022/04/16 09:25:47;;;;;;;21.83;14.18;;;;;;;13.32;nan;100718.81;5010549;28;20037;-71
2022/04/16 09:28:15;;;;;;;22.90;14.45;;;;;;;13.52;nan;100721.84;5011519;28;20057;-72
2022/04/16 09:30:57;;;;;;;22.13;14.13;;;;;;;13.65;nan;100735.81;5031629;28;20057;-70
2022/04/16 09:33:22;;;;;;;19.85;13.45;;;;;;;13.69;nan;100737.75;5026409;28;20062;-71
2022/04/16 09:35:54;;;;;;;20.67;13.52;;;;;;;13.65;nan;100718.13;5008949;28;20076;-70
2022/04/16 09:38:20;;;;;;;18.67;13.82;;;;;;;13.66;nan;100719.72;5022298;28;20053;-69
2022/04/16 09:40:46;;;;;;;19.95;13.35;;;;;;;13.82;nan;100734.03;5023231;28;20608;-69
2022/04/16 09:43:12;;;;;;;19.10;14.07;;;;;;;13.78;nan;100709.88;5006150;28;20497;-69
2022/04/16 09:45:39;;;;;;;19.00;13.23;;;;;;;14.06;nan;100740.00;5015011;28;20073;-68
2022/04/16 09:48:09;;;;;;;19.08;13.07;;;;;;;14.15;nan;100725.34;5010701;28;20066;-69
2022/04/16 09:50:37;;;;;;;17.85;12.90;;;;;;;13.96;nan;100681.59;5010728;28;20044;-69
2022/04/16 09:53:05;;;;;;;20.23;13.32;;;;;;;14.30;nan;100723.97;5010957;28;20045;-70
2022/04/16 09:55:31;;;;;;;20.63;13.60;;;;;;;14.27;nan;100725.25;5010728;28;20057;-75
2022/04/16 09:58:01;;;;;;;17.90;12.30;;;;;;;14.29;nan;100719.69;5008494;28;20049;-75
2022/04/16 10:00:28;;;;;;;21.92;12.48;;;;;;;14.41;nan;100718.59;5011765;28;20088;-74
2022/04/16 10:02:55;;;;;;;17.65;11.93;;;;;;;14.39;nan;100717.19;5010514;28;20048;-75
2022/04/16 10:05:24;;;;;;;17.45;12.10;;;;;;;14.49;nan;100720.03;5011864;28;20056;-75
2022/04/16 10:07:50;;;;;;;;;;;;;;;14.52;nan;100718.72;5012819;28;20431;-75
2022/04/16 10:10:19;;;;;;;18.38;9.90;;;;;;;14.60;nan;100719.13;5009941;28;19927;-76
2022/04/16 10:13:00;;;;;;;19.13;11.32;;;;;;;14.61;nan;100723.41;5011941;28;20103;-76
2022/04/16 10:15:32;;;;;;;16.30;11.25;;;;;;;14.65;nan;100718.41;5010866;28;20057;-75
2022/04/16 10:17:58;;;;;;;16.42;11.43;;;;;;;14.76;nan;100711.41;5010497;28;20045;-76
2022/04/16 10:20:25;;;;;;;16.63;10.98;;;;;;;14.80;nan;100702.72;5009301;28;20042;-71
2022/04/16 10:22:56;;;;;;;19.83;11.55;;;;;;;14.98;nan;100722.03;5012524;28;20444;-70
2022/04/16 10:25:34;;;;;;;16.20;10.88;;;;;;;15.08;nan;100712.38;5011361;28;20065;-70
2022/04/16 10:28:11;;;;;;;15.80;10.30;;;;;;;15.14;nan;100707.91;5011397;28;20037;-71
2022/04/16 10:30:42;;;;;;;15.82;11.05;;;;;;;15.15;nan;100719.31;5011671;28;20038;-71
2022/04/16 10:33:17;;;;;;;17.13;10.15;;;;;;;15.09;nan;100711.31;5008715;28;20034;-71
2022/04/16 10:35:54;;;;;;;15.18;10.95;;;;;;;15.09;nan;100711.31;5026731;28;20041;-71
2022/04/16 10:38:24;;;;;;;17.05;11.20;;;;;;;15.02;nan;100700.06;5017033;28;20415;-71
2022/04/16 10:40:57;;;;;;;21.92;12.15;;;;;;;14.76;nan;100706.09;5016356;28;20060;-70
2022/04/16 10:43:28;;;;;;;25.65;11.90;;;;;;;14.67;nan;100705.72;5005991;28;20584;-70
2022/04/16 10:46:11;;;;;;;31.73;13.10;;;;;;;14.43;nan;100702.44;5012963;28;20038;-71
2022/04/16 10:48:38;;;;;;;26.65;13.55;;;;;;;14.36;nan;100710.53;5017765;28;20495;-68
2022/04/16 10:51:08;;;;;;;24.05;12.73;;;;;;;14.30;nan;100721.31;5020350;28;20093;-69
2022/04/16 10:53:35;;;;;;;24.38;14.00;;;;;;;14.10;nan;100725.22;5016751;28;20033;-69
2022/04/16 10:56:14;;;;;;;19.63;14.10;;;;;;;13.90;nan;100719.59;5018147;28;20034;-69
2022/04/16 10:58:45;;;;;;;20.60;13.83;;;;;;;13.83;nan;100719.75;5019230;28;20037;-70
2022/04/16 11:01:12;;;;;;;20.42;14.48;;;;;;;13.73;nan;100714.28;5015282;28;20040;-69
2022/04/16 11:03:47;;;;;;;22.73;15.63;;;;;;;13.78;nan;100717.03;5011310;28;20395;-68
2022/04/16 11:06:14;;;;;;;20.00;14.02;;;;;;;13.83;nan;100717.91;5003382;28;20428;-69
2022/04/16 11:08:40;;;;;;;20.70;13.95;;;;;;;13.86;nan;100713.97;5003018;28;20454;-69
2022/04/16 11:11:07;;;;;;;22.17;14.70;;;;;;;13.97;nan;100718.41;5009268;28;20038;-70
2022/04/16 11:13:34;;;;;;;20.45;13.43;;;;;;;13.97;nan;100715.75;5007119;28;20109;-69
2022/04/16 11:16:01;;;;;;;17.85;13.15;;;;;;;14.02;nan;100723.78;5002091;28;20033;-72
2022/04/16 11:18:45;;;;;;;21.63;13.90;;;;;;;14.03;nan;100722.75;5008238;28;20081;-69
2022/04/16 11:21:20;;;;;;;21.48;13.13;;;;;;;14.03;nan;100727.22;5008505;28;20093;-70
2022/04/16 11:23:48;;;;;;;19.02;13.18;;;;;;;14.00;nan;100717.13;5009021;28;20049;-69
2022/04/16 11:34:30;;;;;;;20.35;12.85;;;;;;;13.22;nan;100706.19;5008787;28;20030;-69
2022/04/16 11:36:58;;;;;;;21.40;14.32;;;;;;;13.44;nan;100729.38;5009895;28;20053;-71
2022/04/16 11:39:31;;;;;;;20.83;13.95;;;;;;;13.40;nan;100719.25;5010303;28;20046;-71
2022/04/16 11:41:59;;;;;;;18.85;13.98;;;;;;;13.49;nan;100727.63;5007152;28;20113;-71
2022/04/16 11:44:41;;;;;;;18.92;12.88;;;;;;;13.57;nan;100721.13;5007927;28;20038;-72
2022/04/16 11:47:14;;;;;;;22.77;14.00;;;;;;;13.68;nan;100725.59;5004104;28;20034;-73
2022/04/16 11:49:43;;;;;;;16.67;12.52;;;;;;;13.66;nan;100710.97;5009936;28;20033;-72
2022/04/16 11:52:10;;;;;;;18.30;13.07;;;;;;;13.71;nan;100717.16;5013275;28;20044;-71